Station: LOXTON AWS

  Atmospheric Gas Attenuation - ITU Rec 676-11   --------------- db/100km ---------------
Date Time Temp RH % AH g/m3 Dew Point Wind Direction Speed kph Gust kph Barometer mB Rainfall Since 9am 24GHz 47GHz 76GHz 122GHz 134GHz 241GHz
17 02:00 0.4 0 0 1022.7 0
17 01:50 0.6 96 4.85 0 0 0 1022.8 0 12.1 23.8 30.8 80.1 62.3 210.1
17 01:40 0.7 94 4.79 -0.1 0 0 1022.8 0 11.9 23.6 30.5 79.3 61.4 207.0
17 01:30 0.8 92 4.72 -0.3 0 0 1022.8 0 11.8 23.5 30.2 78.4 60.4 203.3
17 01:20 1 94 4.88 0.2 0 0 1023 0 12.1 23.7 30.7 80.0 62.4 210.5
17 01:10 1.7 96 5.23 1.2 0 0 1023 0 12.8 24.1 31.9 83.1 66.6 225.3
17 01:00 1.9 94 5.19 1.1 0 0 1023 0 12.8 24.0 31.7 82.5 65.9 222.8
17 00:50 1.9 96 5.3 1.4 0 0 1023 0 13.0 24.2 32.1 83.7 67.4 228.1
17 00:40 2.2 94 5.3 1.4 0 0 1023.1 0 13.0 24.1 32.0 83.4 67.2 227.3
17 00:30 1.6 92 4.98 0.5 4 7 1023.1 0 12.3 23.7 30.9 80.5 63.3 213.7
17 00:20 1.5 92 4.95 0.4 6 6 1023.2 0 12.2 23.7 30.8 80.3 63.0 212.5
17 00:10 1.5 92 4.95 0.4 6 6 1023.2 0 12.2 23.7 30.8 80.3 63.0 212.5
17 00:00 1.6 92 4.98 0.5 2 7 1023.2 0 12.3 23.7 30.9 80.5 63.3 213.7
16 23:50 1.4 90 4.81 0 4 6 1023.3 0 12.0 23.5 30.3 78.8 61.2 206.2
16 23:40 1.4 92 4.91 0.3 0 0 1023.4 0 12.2 23.7 30.7 79.9 62.5 210.9
16 23:30 2.3 98 5.56 2 0 0 1023.3 0 13.5 24.5 33.1 86.2 70.7 239.5
16 23:20 2 92 5.12 0.9 0 0 1023.3 0 12.6 23.9 31.4 81.6 64.9 219.3
16 23:10 2.2 92 5.19 1.1 0 0 1023.3 0 12.7 23.9 31.6 82.2 65.7 222.1
16 23:00 2.1 94 5.26 1.3 4 7 1023.3 0 12.9 24.1 31.9 83.1 66.7 225.7
16 22:50 2.3 91 5.17 1 6 7 1023.5 0 12.7 23.9 31.5 81.9 65.3 220.9
16 22:40 2 92 5.12 0.9 7 7 1023.5 0 12.6 23.9 31.4 81.6 64.9 219.3
16 22:30 2.4 92 5.26 1.3 0 0 1023.5 0 12.9 24.0 31.8 82.8 66.5 224.9
16 22:20 2.5 93 5.35 1.5 0 0 1023.5 0 13.1 24.1 32.1 83.6 67.6 228.9
16 22:10 2.7 89 5.19 1.1 0 0 1023.5 0 12.7 23.8 31.4 81.7 65.3 220.7
16 22:00 2.9 93 5.5 1.9 0 0 1023.6 0 13.4 24.3 32.6 84.9 69.3 234.9
16 21:50 3.6 91 5.64 2.3 0 0 1023.8 0 13.7 24.3 32.9 85.7 70.6 239.5
16 21:40 3.4 94 5.75 2.6 0 0 1023.8 0 13.9 24.6 33.4 87.1 72.3 245.4
16 21:30 3.7 90 5.61 2.2 2 11 1023.8 0 13.6 24.2 32.7 85.2 70.1 237.8
16 21:20 3.3 86 5.22 1.2 7 11 1023.8 0 12.8 23.7 31.3 81.4 65.2 220.5
16 21:10 3.7 88 5.49 1.9 0 0 1023.8 0 13.3 24.0 32.2 83.9 68.5 232.1
16 21:00 3.8 88 5.53 2 0 0 1023.8 0 13.4 24.1 32.3 84.3 68.9 233.7
16 20:50 4.3 85 5.52 2 0 0 1023.8 0 13.4 23.9 32.1 83.6 68.3 231.7
16 20:40 4.6 89 5.89 2.9 0 0 1023.8 0 14.2 24.5 33.5 87.3 73.1 248.3
16 20:30 4.9 93 6.28 3.9 0 0 1023.8 0 15.0 25.0 35.0 91.3 78.1 266.0
16 20:20 4.2 87 5.61 2.2 0 0 1023.8 0 13.6 24.1 32.5 84.7 69.6 236.3
16 20:10 5 92 6.26 3.8 0 0 1023.8 0 14.9 25.0 34.8 91.0 77.7 264.7
16 20:00 4.9 87 5.88 2.9 0 0 1023.7 0 14.1 24.4 33.3 86.9 72.6 246.9
16 19:50 5.4 87 6.07 3.5 0 0 1023.6 0 14.5 24.5 33.9 88.4 74.7 254.3
16 19:40 5.2 87 5.99 3.3 0 0 1023.6 0 14.4 24.4 33.6 87.7 73.8 251.1
16 19:30 5.2 84 5.79 2.7 0 0 1023.5 0 13.9 24.1 32.8 85.5 71.1 241.7
16 19:20 6.3 82 6.07 3.4 0 0 1023.5 0 14.5 24.3 33.5 87.4 73.9 251.3
16 19:10 6.8 88 6.73 5 0 0 1023.4 0 15.9 25.2 36.0 94.0 82.3 280.9
16 19:00 7.3 87 6.88 5.3 0 0 1023.3 0 16.2 25.3 36.4 95.0 83.8 286.2
16 18:50 7 84 6.51 4.5 0 0 1023.3 0 15.4 24.8 35.0 91.3 79.1 269.7
16 18:40 7.9 86 7.07 5.7 0 0 1023.2 0 16.6 25.5 36.9 96.4 85.7 293.0
16 18:30 7.5 77 6.17 3.8 0 0 1023.2 0 14.7 24.1 33.4 87.1 74.0 252.1
16 18:20 8.8 74 6.44 4.5 0 0 1023 0 15.2 24.2 33.9 88.5 76.3 260.3
16 18:10 8.7 77 6.66 4.9 0 0 1022.9 0 15.7 24.6 34.8 90.9 79.3 270.8
16 18:00 9.3 81 7.28 6.3 4 7 1022.9 0 17.0 25.4 37.1 96.9 86.9 297.6
16 17:50 9.8 79 7.33 6.3 0 0 1022.9 0 17.0 25.3 37.0 96.9 87.0 298.1
16 17:40 10.5 75 7.28 6.2 0 0 1022.8 0 16.9 25.1 36.5 95.5 85.6 293.1
16 17:30 11.1 69 6.95 5.7 0 0 1022.8 0 16.2 24.4 34.9 91.2 80.6 275.8
16 17:20 12.3 61 6.62 5.1 0 0 1022.7 0 15.4 23.5 33.1 86.5 75.2 257.0
16 17:10 13.4 57 6.63 5.2 7 7 1022.8 0 15.4 23.3 32.7 85.4 74.3 253.9
16 17:00 15.3 48 6.27 4.3 7 9 1022.7 0 14.6 22.2 30.7 79.9 68.2 232.8
16 16:50 15.8 45 6.06 4.1 7 7 1022.7 0 14.1 21.8 29.7 77.4 65.3 222.7
16 16:40 16.2 44 6.07 4.1 9 11 1022.8 0 14.1 21.7 29.6 77.1 65.1 222.0
16 16:30 16.5 43 6.04 4 7 11 1022.8 0 14.0 21.6 29.4 76.6 64.5 219.9
16 16:20 16.8 39 5.58 3 7 9 1022.8 0 13.1 20.9 27.7 72.0 59.0 200.6
16 16:10 16.8 39 5.58 3 7 9 1022.8 0 13.1 20.9 27.7 72.0 59.0 200.6
16 16:00 17.1 38 5.53 2.8 6 11 1022.8 0 13.0 20.8 27.4 71.3 58.2 197.9
16 15:50 17.1 39 5.68 3.1 7 9 1022.8 0 13.3 21.0 27.9 72.7 59.9 203.8
16 15:40 17.2 38 5.56 2.7 9 11 1022.7 0 13.0 20.8 27.5 71.5 58.5 198.8
16 15:30 17.3 37 5.45 2.5 9 13 1022.6 0 12.8 20.6 27.1 70.4 57.2 194.2
16 15:20 17.3 38 5.6 2.8 13 15 1022.6 0 13.1 20.8 27.6 71.7 58.9 200.1
16 15:10 17.7 37 5.58 2.8 6 7 1022.6 0 13.0 20.7 27.4 71.2 58.3 198.4
16 15:00 18 37 5.68 3.3 4 7 1022.6 0 13.2 20.8 27.6 71.9 59.3 201.6
16 14:50 17.7 37 5.58 2.8 6 7 1022.6 0 13.0 20.7 27.4 71.2 58.3 198.4
16 14:40 17.4 40 5.93 3.6 7 9 1022.6 0 13.8 21.3 28.7 74.7 62.5 213.1
16 14:30 17.7 37 5.58 2.8 4 7 1022.7 0 13.0 20.7 27.4 71.2 58.3 198.4
16 14:20 17.2 40 5.86 3.6 7 7 1022.7 0 13.6 21.2 28.5 74.2 61.9 210.8
16 14:10 17.9 35 5.34 2.5 7 9 1022.7 0 12.5 20.3 26.5 68.9 55.5 188.5
16 14:00 17.6 37 5.55 2.7 4 9 1022.8 0 13.0 20.7 27.3 71.0 58.1 197.5
16 13:50 17.5 36 5.37 2.5 6 6 1023 0 12.6 20.5 26.8 69.5 56.2 190.6
16 13:40 17 38 5.5 2.7 4 6 1023.1 0 12.9 20.8 27.4 71.1 58.0 197.0
16 13:30 16.8 39 5.58 3 9 13 1023.1 0 13.1 20.9 27.7 72.0 59.0 200.6
16 13:20 16.8 39 5.58 3 4 9 1023.1 0 13.1 20.9 27.7 72.0 59.0 200.6
16 13:10 16.5 40 5.62 2.8 9 11 1023.3 0 13.2 21.1 28.0 72.7 59.7 203.0
16 13:00 16.8 38 5.43 2.6 6 9 1023.5 0 12.8 20.7 27.2 70.7 57.3 194.7
16 12:50 16.4 41 5.72 3.3 0 4 1023.7 0 13.4 21.2 28.3 73.7 61.0 207.4
16 12:40 16.5 40 5.62 2.8 7 7 1023.8 0 13.2 21.1 28.0 72.7 59.7 203.1
16 12:30 16.1 41 5.62 2.8 6 11 1024 0 13.2 21.2 28.1 73.1 60.0 204.1
16 12:20 15.9 41 5.55 2.8 9 11 1024.1 0 13.0 21.1 27.9 72.6 59.4 201.8
16 12:10 15.8 41 5.52 2.6 7 9 1024.4 0 13.0 21.1 27.9 72.5 59.1 200.9
16 12:00 15.6 41 5.45 2.6 7 11 1024.6 0 12.8 21.1 27.7 72.0 58.5 198.6
16 11:50 15.5 42 5.55 2.8 7 9 1024.8 0 13.0 21.2 28.1 73.0 59.7 202.9
16 11:40 14.9 46 5.86 3.4 9 11 1025 0 13.7 21.8 29.4 76.5 63.8 217.2
16 11:30 15.5 45 5.95 3.7 2 9 1025.2 0 13.9 21.8 29.5 76.9 64.4 219.4
16 11:20 14.6 48 6.01 3.8 0 0 1025.2 0 14.0 22.1 30.1 78.3 65.9 224.4
16 11:10 14.9 48 6.12 4 0 0 1025.2 0 14.3 22.2 30.4 79.1 66.9 228.1
16 11:00 14.5 51 6.34 4.5 0 0 1025.2 0 14.7 22.6 31.3 81.6 69.9 238.6
16 10:50 13.8 54 6.43 4.7 2 6 1025.3 0 15.0 22.9 31.9 83.2 71.6 244.5
16 10:40 13.6 53 6.24 4.4 0 0 1025.3 0 14.6 22.7 31.3 81.5 69.5 237.0
16 10:30 12.4 55 6.01 3.6 2 6 1025.5 0 14.1 22.7 30.9 80.5 67.7 230.6
16 10:20 11.5 61 6.3 4.4 6 6 1025.5 0 14.8 23.3 32.3 84.3 72.1 245.9
16 10:10 11.3 61 6.22 4.1 0 0 1025.5 0 14.6 23.3 32.1 83.7 71.3 243.0
16 10:00 10.3 61 5.84 3.1 0 6 1025.5 0 13.8 22.9 31.1 80.9 67.4 229.2
16 09:50 10.4 62 5.98 3.5 0 0 1025.4 0 14.1 23.1 31.6 82.2 69.1 235.1
16 09:40 8.8 72 6.27 4 0 0 1025.4 0 14.8 24.0 33.3 86.9 74.2 253.0
16 09:30 8.4 71 6.03 3.5 0 0 1025.4 0 14.3 23.7 32.5 84.8 71.5 243.3

Last Refresh: 17-Jul-2020 02:11:51

Most of the information presented on this site is sourced from the Bureau of Meteorology.  Copyright in all material sourced from the Bureau of Meteorology resides with the Commonwealth of Australia.